sensor_id;sensor_type;location;lat;lon;timestamp;pressure;altitude;pressure_sealevel;temperature;humidity
13867;BME280;7003;46.982;15.248;2024-03-02T00:00:51;96462.69;;;7.47;100.00
13867;BME280;7003;46.982;15.248;2024-03-02T00:03:36;96472.31;;;7.52;100.00
13867;BME280;7003;46.982;15.248;2024-03-02T00:06:11;96476.97;;;7.55;100.00
13867;BME280;7003;46.982;15.248;2024-03-02T00:08:40;96473.75;;;7.49;100.00
13867;BME280;7003;46.982;15.248;2024-03-02T00:11:07;96476.44;;;7.41;100.00
13867;BME280;7003;46.982;15.248;2024-03-02T00:13:38;96468.56;;;7.53;100.00
13867;BME280;7003;46.982;15.248;2024-03-02T00:16:08;96477.84;;;7.38;100.00
13867;BME280;7003;46.982;15.248;2024-03-02T00:18:36;96469.66;;;7.52;100.00
13867;BME280;7003;46.982;15.248;2024-03-02T00:21:06;96470.38;;;7.40;100.00
13867;BME280;7003;46.982;15.248;2024-03-02T00:23:48;96472.31;;;7.52;100.00
13867;BME280;7003;46.982;15.248;2024-03-02T00:26:16;96469.78;;;7.34;100.00
13867;BME280;7003;46.982;15.248;2024-03-02T00:28:54;96469.63;;;7.31;100.00
13867;BME280;7003;46.982;15.248;2024-03-02T00:31:27;96476.72;;;7.18;100.00
13867;BME280;7003;46.982;15.248;2024-03-02T00:33:55;96479.78;;;7.20;100.00
13867;BME280;7003;46.982;15.248;2024-03-02T00:36:29;96479.34;;;7.18;100.00
13867;BME280;7003;46.982;15.248;2024-03-02T00:39:04;96481.88;;;7.06;100.00
13867;BME280;7003;46.982;15.248;2024-03-02T00:41:36;96481.88;;;7.06;100.00
13867;BME280;7003;46.982;15.248;2024-03-02T00:44:09;96482.66;;;7.07;100.00
13867;BME280;7003;46.982;15.248;2024-03-02T00:46:43;96487.19;;;6.97;100.00
13867;BME280;7003;46.982;15.248;2024-03-02T00:49:19;96495.19;;;6.89;100.00
13867;BME280;7003;46.982;15.248;2024-03-02T00:51:53;96492.19;;;6.99;100.00
13867;BME280;7003;46.982;15.248;2024-03-02T00:54:21;96483.66;;;6.93;100.00
13867;BME280;7003;46.982;15.248;2024-03-02T00:56:50;96495.47;;;6.96;100.00
13867;BME280;7003;46.982;15.248;2024-03-02T00:59:19;96494.34;;;6.97;100.00
13867;BME280;7003;46.982;15.248;2024-03-02T01:01:47;96497.00;;;6.97;100.00
13867;BME280;7003;46.982;15.248;2024-03-02T01:04:18;96493.44;;;6.93;100.00
13867;BME280;7003;46.982;15.248;2024-03-02T01:06:45;96492.38;;;6.94;100.00
13867;BME280;7003;46.982;15.248;2024-03-02T01:09:18;96493.72;;;7.00;100.00
13867;BME280;7003;46.982;15.248;2024-03-02T01:11:49;96492.84;;;6.96;100.00
13867;BME280;7003;46.982;15.248;2024-03-02T01:14:25;96491.69;;;7.06;100.00
13867;BME280;7003;46.982;15.248;2024-03-02T01:17:12;96487.94;;;7.07;100.00
13867;BME280;7003;46.982;15.248;2024-03-02T01:19:48;96487.66;;;7.00;100.00
13867;BME280;7003;46.982;15.248;2024-03-02T01:22:25;96488.31;;;6.97;100.00
13867;BME280;7003;46.982;15.248;2024-03-02T01:24:55;96494.81;;;6.99;100.00
13867;BME280;7003;46.982;15.248;2024-03-02T01:27:27;96490.78;;;7.02;100.00
13867;BME280;7003;46.982;15.248;2024-03-02T01:29:57;96498.06;;;7.05;100.00
13867;BME280;7003;46.982;15.248;2024-03-02T01:32:28;96495.28;;;7.01;100.00
13867;BME280;7003;46.982;15.248;2024-03-02T01:34:59;96497.75;;;7.06;100.00
13867;BME280;7003;46.982;15.248;2024-03-02T01:37:42;96499.94;;;7.04;100.00
13867;BME280;7003;46.982;15.248;2024-03-02T01:40:11;96491.56;;;7.02;100.00
13867;BME280;7003;46.982;15.248;2024-03-02T01:42:39;96501.47;;;7.05;100.00
13867;BME280;7003;46.982;15.248;2024-03-02T01:45:15;96497.75;;;7.06;100.00
13867;BME280;7003;46.982;15.248;2024-03-02T01:47:51;96489.38;;;7.04;100.00
13867;BME280;7003;46.982;15.248;2024-03-02T01:50:25;96492.78;;;7.05;100.00
13867;BME280;7003;46.982;15.248;2024-03-02T01:52:57;96495.56;;;7.08;100.00
13867;BME280;7003;46.982;15.248;2024-03-02T01:55:27;96486.66;;;7.13;100.00
13867;BME280;7003;46.982;15.248;2024-03-02T01:57:57;96491.97;;;7.13;100.00
13867;BME280;7003;46.982;15.248;2024-03-02T02:00:26;96490.09;;;7.13;100.00
13867;BME280;7003;46.982;15.248;2024-03-02T02:02:57;96489.00;;;7.14;100.00
13867;BME280;7003;46.982;15.248;2024-03-02T02:05:25;96480.28;;;7.14;100.00
13867;BME280;7003;46.982;15.248;2024-03-02T02:07:55;96488.25;;;7.05;100.00
13867;BME280;7003;46.982;15.248;2024-03-02T02:10:24;96489.50;;;7.08;100.00
13867;BME280;7003;46.982;15.248;2024-03-02T02:12:52;96487.31;;;7.10;100.00
13867;BME280;7003;46.982;15.248;2024-03-02T02:15:28;96490.75;;;7.10;100.00
13867;BME280;7003;46.982;15.248;2024-03-02T02:17:58;96483.13;;;7.09;100.00
13867;BME280;7003;46.982;15.248;2024-03-02T02:20:26;96487.31;;;7.10;100.00
13867;BME280;7003;46.982;15.248;2024-03-02T02:22:58;96480.47;;;7.09;100.00
13867;BME280;7003;46.982;15.248;2024-03-02T02:25:26;96481.25;;;7.09;100.00
13867;BME280;7003;46.982;15.248;2024-03-02T02:27:55;96472.25;;;7.10;100.00
13867;BME280;7003;46.982;15.248;2024-03-02T02:30:29;96471.16;;;7.11;100.00
13867;BME280;7003;46.982;15.248;2024-03-02T02:32:58;96468.03;;;7.09;100.00
13867;BME280;7003;46.982;15.248;2024-03-02T02:35:28;96455.91;;;7.08;100.00
13867;BME280;7003;46.982;15.248;2024-03-02T02:37:59;96452.47;;;7.08;100.00
13867;BME280;7003;46.982;15.248;2024-03-02T02:40:30;96455.53;;;6.89;100.00
13867;BME280;7003;46.982;15.248;2024-03-02T02:43:00;96459.28;;;6.88;100.00
13867;BME280;7003;46.982;15.248;2024-03-02T02:45:28;96445.91;;;6.84;100.00
13867;BME280;7003;46.982;15.248;2024-03-02T02:47:56;96447.13;;;6.87;100.00
13867;BME280;7003;46.982;15.248;2024-03-02T02:50:26;96449.47;;;6.88;100.00
13867;BME280;7003;46.982;15.248;2024-03-02T02:52:54;96447.72;;;6.92;100.00
13867;BME280;7003;46.982;15.248;2024-03-02T02:55:27;96441.47;;;6.97;100.00
13867;BME280;7003;46.982;15.248;2024-03-02T02:57:59;96432.38;;;6.86;100.00
13867;BME280;7003;46.982;15.248;2024-03-02T03:00:26;96435.81;;;6.78;100.00
13867;BME280;7003;46.982;15.248;2024-03-02T03:02:57;96439.38;;;6.82;100.00
13867;BME280;7003;46.982;15.248;2024-03-02T03:05:24;96429.84;;;6.89;100.00
13867;BME280;7003;46.982;15.248;2024-03-02T03:07:55;96438.19;;;6.71;100.00
13867;BME280;7003;46.982;15.248;2024-03-02T03:10:23;96437.44;;;6.62;100.00
13867;BME280;7003;46.982;15.248;2024-03-02T03:12:56;96444.75;;;6.65;100.00
13867;BME280;7003;46.982;15.248;2024-03-02T03:15:30;96444.88;;;6.60;100.00
13867;BME280;7003;46.982;15.248;2024-03-02T03:18:01;96437.31;;;6.49;100.00
13867;BME280;7003;46.982;15.248;2024-03-02T03:20:32;96441.56;;;6.80;100.00
13867;BME280;7003;46.982;15.248;2024-03-02T03:23:01;96431.44;;;6.82;100.00
13867;BME280;7003;46.982;15.248;2024-03-02T03:25:30;96433.38;;;6.73;100.00
13867;BME280;7003;46.982;15.248;2024-03-02T03:28:03;96436.53;;;6.49;100.00
13867;BME280;7003;46.982;15.248;2024-03-02T03:30:33;96427.53;;;6.50;100.00
13867;BME280;7003;46.982;15.248;2024-03-02T03:33:01;96440.47;;;6.34;100.00
13867;BME280;7003;46.982;15.248;2024-03-02T03:35:31;96429.56;;;6.44;100.00
13867;BME280;7003;46.982;15.248;2024-03-02T03:38:02;96421.75;;;6.56;100.00
13867;BME280;7003;46.982;15.248;2024-03-02T03:40:29;96418.03;;;6.57;100.00
13867;BME280;7003;46.982;15.248;2024-03-02T03:42:59;96417.91;;;6.45;100.00
13867;BME280;7003;46.982;15.248;2024-03-02T03:45:29;96425.41;;;6.26;100.00
13867;BME280;7003;46.982;15.248;2024-03-02T03:47:58;96435.22;;;6.17;100.00
13867;BME280;7003;46.982;15.248;2024-03-02T03:50:25;96440.31;;;6.22;100.00
13867;BME280;7003;46.982;15.248;2024-03-02T03:52:55;96433.47;;;6.30;100.00
13867;BME280;7003;46.982;15.248;2024-03-02T03:55:25;96435.63;;;6.36;100.00
13867;BME280;7003;46.982;15.248;2024-03-02T03:57:54;96435.50;;;6.33;100.00
13867;BME280;7003;46.982;15.248;2024-03-02T04:00:23;96426.16;;;6.35;100.00
13867;BME280;7003;46.982;15.248;2024-03-02T04:03:02;96422.56;;;6.40;100.00
13867;BME280;7003;46.982;15.248;2024-03-02T04:05:31;96422.28;;;6.33;100.00
13867;BME280;7003;46.982;15.248;2024-03-02T04:07:58;96421.66;;;6.36;100.00
13867;BME280;7003;46.982;15.248;2024-03-02T04:10:26;96416.13;;;6.11;100.00
13867;BME280;7003;46.982;15.248;2024-03-02T04:12:54;96427.28;;;6.17;100.00
13867;BME280;7003;46.982;15.248;2024-03-02T04:15:22;96426.34;;;6.22;100.00
13867;BME280;7003;46.982;15.248;2024-03-02T04:17:53;96430.53;;;6.23;100.00
13867;BME280;7003;46.982;15.248;2024-03-02T04:20:23;96432.72;;;6.12;100.00
13867;BME280;7003;46.982;15.248;2024-03-02T04:22:51;96434.56;;;6.20;100.00
13867;BME280;7003;46.982;15.248;2024-03-02T04:25:19;96427.78;;;6.10;100.00
13867;BME280;7003;46.982;15.248;2024-03-02T04:27:49;96442.38;;;6.08;100.00
13867;BME280;7003;46.982;15.248;2024-03-02T04:30:17;96434.16;;;6.01;100.00
13867;BME280;7003;46.982;15.248;2024-03-02T04:32:46;96436.63;;;5.97;100.00
13867;BME280;7003;46.982;15.248;2024-03-02T04:35:17;96438.34;;;6.02;100.00
13867;BME280;7003;46.982;15.248;2024-03-02T04:38:05;96451.06;;;5.91;100.00
13867;BME280;7003;46.982;15.248;2024-03-02T04:40:35;96451.22;;;5.95;100.00
13867;BME280;7003;46.982;15.248;2024-03-02T04:43:06;96453.09;;;5.94;100.00
13867;BME280;7003;46.982;15.248;2024-03-02T04:45:37;96451.38;;;5.90;100.00
13867;BME280;7003;46.982;15.248;2024-03-02T04:48:08;96455.56;;;5.99;100.00
13867;BME280;7003;46.982;15.248;2024-03-02T04:50:35;96451.22;;;5.95;100.00
13867;BME280;7003;46.982;15.248;2024-03-02T04:53:07;96461.47;;;5.96;100.00
13867;BME280;7003;46.982;15.248;2024-03-02T04:55:37;96461.16;;;5.89;100.00
13867;BME280;7003;46.982;15.248;2024-03-02T04:58:45;96468.59;;;5.87;100.00
13867;BME280;7003;46.982;15.248;2024-03-02T05:01:12;96477.91;;;5.85;100.00
13867;BME280;7003;46.982;15.248;2024-03-02T05:03:41;96481.94;;;5.82;100.00
13867;BME280;7003;46.982;15.248;2024-03-02T05:06:11;96482.25;;;5.80;100.00
13867;BME280;7003;46.982;15.248;2024-03-02T05:08:47;96480.41;;;5.90;100.00
13867;BME280;7003;46.982;15.248;2024-03-02T05:11:18;96481.34;;;5.94;100.00
13867;BME280;7003;46.982;15.248;2024-03-02T05:14:06;96475.09;;;5.81;100.00
13867;BME280;7003;46.982;15.248;2024-03-02T05:16:39;96482.41;;;5.84;100.00
13867;BME280;7003;46.982;15.248;2024-03-02T05:19:12;96484.13;;;5.80;100.00
13867;BME280;7003;46.982;15.248;2024-03-02T05:22:00;96478.09;;;5.88;100.00
13867;BME280;7003;46.982;15.248;2024-03-02T05:24:35;96479.97;;;5.88;100.00
13867;BME280;7003;46.982;15.248;2024-03-02T05:27:03;96479.63;;;5.80;100.00
13867;BME280;7003;46.982;15.248;2024-03-02T05:29:32;96481.06;;;5.95;100.00
13867;BME280;7003;46.982;15.248;2024-03-02T05:32:01;96478.25;;;6.09;100.00
13867;BME280;7003;46.982;15.248;2024-03-02T05:34:32;96479.63;;;5.98;100.00
13867;BME280;7003;46.982;15.248;2024-03-02T05:37:02;96470.16;;;6.05;100.00
13867;BME280;7003;46.982;15.248;2024-03-02T05:39:35;96474.97;;;6.12;100.00
13867;BME280;7003;46.982;15.248;2024-03-02T05:42:06;96468.94;;;6.11;100.00
13867;BME280;7003;46.982;15.248;2024-03-02T05:44:37;96470.94;;;5.97;100.00
13867;BME280;7003;46.982;15.248;2024-03-02T05:47:07;96481.50;;;6.06;100.00
13867;BME280;7003;46.982;15.248;2024-03-02T05:49:38;96479.94;;;6.05;100.00
13867;BME280;7003;46.982;15.248;2024-03-02T05:52:14;96485.22;;;6.05;100.00
13867;BME280;7003;46.982;15.248;2024-03-02T05:54:49;96483.69;;;6.04;100.00
13867;BME280;7003;46.982;15.248;2024-03-02T05:57:22;96475.59;;;6.00;100.00
13867;BME280;7003;46.982;15.248;2024-03-02T06:00:24;96488.34;;;6.07;100.00
13867;BME280;7003;46.982;15.248;2024-03-02T06:03:02;96484.59;;;6.08;100.00
13867;BME280;7003;46.982;15.248;2024-03-02T06:05:31;96496.56;;;6.14;100.00
13867;BME280;7003;46.982;15.248;2024-03-02T06:08:06;96495.78;;;6.05;100.00
13867;BME280;7003;46.982;15.248;2024-03-02T06:10:50;96505.25;;;5.89;100.00
13867;BME280;7003;46.982;15.248;2024-03-02T06:13:27;96502.16;;;6.04;100.00
13867;BME280;7003;46.982;15.248;2024-03-02T06:16:01;96502.59;;;5.97;100.00
13867;BME280;7003;46.982;15.248;2024-03-02T06:18:32;96515.97;;;5.92;100.00
13867;BME280;7003;46.982;15.248;2024-03-02T06:21:07;96515.31;;;5.87;100.00
13867;BME280;7003;46.982;15.248;2024-03-02T06:23:39;96520.28;;;5.79;100.00
13867;BME280;7003;46.982;15.248;2024-03-02T06:26:14;96524.81;;;5.88;100.00
13867;BME280;7003;46.982;15.248;2024-03-02T06:28:45;96531.97;;;5.96;100.00
13867;BME280;7003;46.982;15.248;2024-03-02T06:31:18;96522.97;;;6.05;100.00
13867;BME280;7003;46.982;15.248;2024-03-02T06:33:49;96522.19;;;6.05;100.00
13867;BME280;7003;46.982;15.248;2024-03-02T06:36:24;96522.19;;;6.05;100.00
13867;BME280;7003;46.982;15.248;2024-03-02T06:38:55;96532.13;;;6.08;100.00
13867;BME280;7003;46.982;15.248;2024-03-02T06:41:28;96532.31;;;6.11;100.00
13867;BME280;7003;46.982;15.248;2024-03-02T06:44:06;96529.00;;;6.06;100.00
13867;BME280;7003;46.982;15.248;2024-03-02T06:46:37;96536.16;;;6.14;100.00
13867;BME280;7003;46.982;15.248;2024-03-02T06:49:08;96522.19;;;6.22;100.00
13867;BME280;7003;46.982;15.248;2024-03-02T06:51:43;96515.34;;;6.21;100.00
13867;BME280;7003;46.982;15.248;2024-03-02T06:54:17;96514.25;;;6.22;100.00
13867;BME280;7003;46.982;15.248;2024-03-02T06:56:56;96514.88;;;6.28;100.00
13867;BME280;7003;46.982;15.248;2024-03-02T06:59:28;96511.00;;;6.34;100.00
13867;BME280;7003;46.982;15.248;2024-03-02T07:02:03;96513.47;;;6.47;100.00
13867;BME280;7003;46.982;15.248;2024-03-02T07:04:37;96519.66;;;6.43;100.00
13867;BME280;7003;46.982;15.248;2024-03-02T07:07:08;96514.09;;;6.44;100.00
13867;BME280;7003;46.982;15.248;2024-03-02T07:09:40;96511.13;;;6.54;100.00
13867;BME280;7003;46.982;15.248;2024-03-02T07:12:13;96508.31;;;6.51;100.00
13867;BME280;7003;46.982;15.248;2024-03-02T07:14:49;96512.81;;;6.68;100.00
13867;BME280;7003;46.982;15.248;2024-03-02T07:17:38;96518.09;;;6.59;100.00
13867;BME280;7003;46.982;15.248;2024-03-02T07:20:10;96507.38;;;6.73;100.00
13867;BME280;7003;46.982;15.248;2024-03-02T07:22:42;96504.06;;;6.84;100.00
13867;BME280;7003;46.982;15.248;2024-03-02T07:25:31;96507.75;;;6.92;100.00
13867;BME280;7003;46.982;15.248;2024-03-02T07:28:20;96497.41;;;7.16;100.00
13867;BME280;7003;46.982;15.248;2024-03-02T07:31:07;96498.81;;;7.14;100.00
13867;BME280;7003;46.982;15.248;2024-03-02T07:33:55;96505.25;;;7.33;100.00
13867;BME280;7003;46.982;15.248;2024-03-02T07:36:43;96510.84;;;7.61;100.00
13867;BME280;7003;46.982;15.248;2024-03-02T07:39:31;96500.84;;;7.67;100.00
13867;BME280;7003;46.982;15.248;2024-03-02T07:42:00;96501.78;;;7.71;100.00
13867;BME280;7003;46.982;15.248;2024-03-02T07:44:49;96497.97;;;8.01;100.00
13867;BME280;7003;46.982;15.248;2024-03-02T07:47:36;96505.66;;;7.94;100.00
13867;BME280;7003;46.982;15.248;2024-03-02T07:50:26;96496.88;;;8.02;100.00
13867;BME280;7003;46.982;15.248;2024-03-02T07:52:57;96497.19;;;8.22;100.00
13867;BME280;7003;46.982;15.248;2024-03-02T07:55:28;96499.81;;;8.22;100.00
13867;BME280;7003;46.982;15.248;2024-03-02T07:57:57;96496.22;;;8.47;100.00
13867;BME280;7003;46.982;15.248;2024-03-02T08:00:25;96499.09;;;8.99;100.00
13867;BME280;7003;46.982;15.248;2024-03-02T08:02:54;96497.66;;;8.90;100.00
13867;BME280;7003;46.982;15.248;2024-03-02T08:05:25;96492.91;;;9.07;100.00
13867;BME280;7003;46.982;15.248;2024-03-02T08:07:54;96491.25;;;9.03;100.00
13867;BME280;7003;46.982;15.248;2024-03-02T08:10:22;96492.16;;;9.31;100.00
13867;BME280;7003;46.982;15.248;2024-03-02T08:12:53;96498.03;;;9.37;100.00
13867;BME280;7003;46.982;15.248;2024-03-02T08:15:22;96495.78;;;9.39;100.00
13867;BME280;7003;46.982;15.248;2024-03-02T08:17:52;96500.09;;;9.31;100.00
13867;BME280;7003;46.982;15.248;2024-03-02T08:20:20;96495.34;;;9.49;100.00
13867;BME280;7003;46.982;15.248;2024-03-02T08:22:51;96500.75;;;9.52;100.00
13867;BME280;7003;46.982;15.248;2024-03-02T08:25:21;96492.13;;;9.55;100.00
13867;BME280;7003;46.982;15.248;2024-03-02T08:27:49;96491.72;;;9.41;100.00
13867;BME280;7003;46.982;15.248;2024-03-02T08:30:17;96492.81;;;9.28;100.00
13867;BME280;7003;46.982;15.248;2024-03-02T08:32:45;96494.59;;;9.12;100.00
13867;BME280;7003;46.982;15.248;2024-03-02T08:35:17;96487.94;;;9.18;100.00
13867;BME280;7003;46.982;15.248;2024-03-02T08:37:48;96493.59;;;9.41;100.00
13867;BME280;7003;46.982;15.248;2024-03-02T08:40:16;96486.25;;;9.62;100.00
13867;BME280;7003;46.982;15.248;2024-03-02T08:42:45;96491.66;;;9.90;100.00
13867;BME280;7003;46.982;15.248;2024-03-02T08:45:14;96491.66;;;9.90;100.00
13867;BME280;7003;46.982;15.248;2024-03-02T08:47:46;96488.50;;;10.00;100.00
13867;BME280;7003;46.982;15.248;2024-03-02T08:50:18;96490.91;;;9.65;100.00
13867;BME280;7003;46.982;15.248;2024-03-02T08:52:46;96492.59;;;9.45;100.00
13867;BME280;7003;46.982;15.248;2024-03-02T08:55:17;96490.59;;;9.54;100.00
13867;BME280;7003;46.982;15.248;2024-03-02T08:57:45;96489.03;;;9.65;100.00
13867;BME280;7003;46.982;15.248;2024-03-02T09:00:13;96481.38;;;9.76;100.00
13867;BME280;7003;46.982;15.248;2024-03-02T09:02:46;96488.72;;;9.67;100.00
13867;BME280;7003;46.982;15.248;2024-03-02T09:05:25;96481.31;;;10.00;100.00
13867;BME280;7003;46.982;15.248;2024-03-02T09:07:56;96481.59;;;9.83;100.00
13867;BME280;7003;46.982;15.248;2024-03-02T09:10:26;96481.84;;;9.66;100.00
13867;BME280;7003;46.982;15.248;2024-03-02T09:12:55;96488.72;;;9.31;100.00
13867;BME280;7003;46.982;15.248;2024-03-02T09:15:25;96489.41;;;9.27;100.00
13867;BME280;7003;46.982;15.248;2024-03-02T09:17:56;96498.44;;;9.63;100.00
13867;BME280;7003;46.982;15.248;2024-03-02T09:20:29;96503.88;;;9.67;100.00
13867;BME280;7003;46.982;15.248;2024-03-02T09:22:57;96505.63;;;9.38;100.00
13867;BME280;7003;46.982;15.248;2024-03-02T09:25:27;96487.81;;;9.14;100.00
13867;BME280;7003;46.982;15.248;2024-03-02T09:27:56;96495.56;;;9.32;100.00
13867;BME280;7003;46.982;15.248;2024-03-02T09:30:26;96496.00;;;9.09;100.00
13867;BME280;7003;46.982;15.248;2024-03-02T09:32:58;96500.00;;;9.40;100.00
13867;BME280;7003;46.982;15.248;2024-03-02T09:35:29;96490.75;;;9.86;100.00
13867;BME280;7003;46.982;15.248;2024-03-02T09:37:57;96481.22;;;9.97;100.00
13867;BME280;7003;46.982;15.248;2024-03-02T09:40:25;96482.09;;;10.01;100.00
13867;BME280;7003;46.982;15.248;2024-03-02T09:42:56;96483.44;;;9.95;100.00
13867;BME280;7003;46.982;15.248;2024-03-02T09:45:25;96484.88;;;10.32;100.00
13867;BME280;7003;46.982;15.248;2024-03-02T09:47:56;96479.34;;;10.53;100.00
13867;BME280;7003;46.982;15.248;2024-03-02T09:50:24;96485.84;;;10.68;100.00
13867;BME280;7003;46.982;15.248;2024-03-02T09:52:57;96482.06;;;11.00;100.00
13867;BME280;7003;46.982;15.248;2024-03-02T09:55:26;96472.34;;;11.55;100.00
13867;BME280;7003;46.982;15.248;2024-03-02T09:57:55;96470.53;;;11.94;100.00
13867;BME280;7003;46.982;15.248;2024-03-02T10:00:26;96465.28;;;11.63;100.00
13867;BME280;7003;46.982;15.248;2024-03-02T10:02:57;96463.47;;;11.67;100.00
13867;BME280;7003;46.982;15.248;2024-03-02T10:05:29;96455.06;;;12.19;100.00
13867;BME280;7003;46.982;15.248;2024-03-02T10:08:02;96460.78;;;12.59;100.00
13867;BME280;7003;46.982;15.248;2024-03-02T10:10:37;96451.81;;;13.39;100.00
13867;BME280;7003;46.982;15.248;2024-03-02T10:13:11;96458.59;;;13.60;100.00
13867;BME280;7003;46.982;15.248;2024-03-02T10:15:40;96460.09;;;13.31;100.00
13867;BME280;7003;46.982;15.248;2024-03-02T10:18:09;96463.00;;;13.22;100.00
13867;BME280;7003;46.982;15.248;2024-03-02T10:20:39;96457.19;;;12.52;100.00
13867;BME280;7003;46.982;15.248;2024-03-02T10:23:12;96455.09;;;12.42;100.00
13867;BME280;7003;46.982;15.248;2024-03-02T10:25:44;96458.88;;;12.83;100.00
13867;BME280;7003;46.982;15.248;2024-03-02T10:28:12;96455.19;;;13.36;100.00
13867;BME280;7003;46.982;15.248;2024-03-02T10:30:41;96458.25;;;13.61;100.00
13867;BME280;7003;46.982;15.248;2024-03-02T10:33:09;96456.44;;;13.69;100.00
13867;BME280;7003;46.982;15.248;2024-03-02T10:35:38;96458.16;;;13.84;100.00
13867;BME280;7003;46.982;15.248;2024-03-02T10:38:07;96446.66;;;13.27;100.00
13867;BME280;7003;46.982;15.248;2024-03-02T10:40:36;96451.91;;;13.20;100.00
13867;BME280;7003;46.982;15.248;2024-03-02T10:43:07;96450.91;;;14.14;100.00
13867;BME280;7003;46.982;15.248;2024-03-02T10:45:36;96450.25;;;13.65;100.00
13867;BME280;7003;46.982;15.248;2024-03-02T10:48:06;96449.28;;;14.06;100.00
13867;BME280;7003;46.982;15.248;2024-03-02T10:50:35;96437.94;;;14.90;100.00
13867;BME280;7003;46.982;15.248;2024-03-02T10:53:05;96436.94;;;14.65;100.00
13867;BME280;7003;46.982;15.248;2024-03-02T10:55:33;96430.34;;;15.47;100.00
13867;BME280;7003;46.982;15.248;2024-03-02T10:58:06;96434.56;;;16.21;100.00
13867;BME280;7003;46.982;15.248;2024-03-02T11:00:41;96424.75;;;16.81;100.00
13867;BME280;7003;46.982;15.248;2024-03-02T11:03:12;96425.53;;;16.89;100.00
13867;BME280;7003;46.982;15.248;2024-03-02T11:05:44;96419.69;;;16.51;100.00
13867;BME280;7003;46.982;15.248;2024-03-02T11:08:13;96429.38;;;17.16;100.00
13867;BME280;7003;46.982;15.248;2024-03-02T11:10:51;96419.78;;;17.15;100.00
13867;BME280;7003;46.982;15.248;2024-03-02T11:13:29;96412.84;;;17.57;95.47
13867;BME280;7003;46.982;15.248;2024-03-02T11:16:04;96408.97;;;17.76;90.12
13867;BME280;7003;46.982;15.248;2024-03-02T11:18:34;96412.00;;;17.81;86.36
13867;BME280;7003;46.982;15.248;2024-03-02T11:21:03;96404.72;;;17.85;88.44
13867;BME280;7003;46.982;15.248;2024-03-02T11:23:35;96396.56;;;17.99;83.36
13867;BME280;7003;46.982;15.248;2024-03-02T11:26:18;96397.34;;;17.96;84.73
13867;BME280;7003;46.982;15.248;2024-03-02T11:28:48;96394.53;;;18.25;88.99
13867;BME280;7003;46.982;15.248;2024-03-02T11:31:17;96389.66;;;17.98;81.65
13867;BME280;7003;46.982;15.248;2024-03-02T11:33:48;96385.22;;;18.40;79.62
13867;BME280;7003;46.982;15.248;2024-03-02T11:36:19;96385.56;;;18.45;75.37
13867;BME280;7003;46.982;15.248;2024-03-02T11:38:50;96389.81;;;18.46;76.83
13867;BME280;7003;46.982;15.248;2024-03-02T11:41:19;96385.56;;;17.48;72.83
13867;BME280;7003;46.982;15.248;2024-03-02T11:43:50;96397.19;;;15.69;91.88
13867;BME280;7003;46.982;15.248;2024-03-02T11:46:22;96393.34;;;14.64;100.00
13867;BME280;7003;46.982;15.248;2024-03-02T11:48:50;96386.59;;;15.29;100.00
13867;BME280;7003;46.982;15.248;2024-03-02T11:51:22;96385.13;;;14.87;100.00
13867;BME280;7003;46.982;15.248;2024-03-02T11:53:51;96390.25;;;14.25;100.00
13867;BME280;7003;46.982;15.248;2024-03-02T11:56:21;96382.00;;;14.01;100.00
13867;BME280;7003;46.982;15.248;2024-03-02T11:58:52;96381.47;;;13.32;100.00
13867;BME280;7003;46.982;15.248;2024-03-02T12:01:21;96378.94;;;13.69;100.00
13867;BME280;7003;46.982;15.248;2024-03-02T12:03:53;96382.47;;;13.76;100.00
13867;BME280;7003;46.982;15.248;2024-03-02T12:06:22;96374.72;;;13.38;100.00
13867;BME280;7003;46.982;15.248;2024-03-02T12:08:53;96372.59;;;13.24;100.00
13867;BME280;7003;46.982;15.248;2024-03-02T12:11:21;96371.00;;;13.76;100.00
13867;BME280;7003;46.982;15.248;2024-03-02T12:14:12;96364.47;;;13.43;100.00
13867;BME280;7003;46.982;15.248;2024-03-02T12:16:59;96361.88;;;13.47;100.00
13867;BME280;7003;46.982;15.248;2024-03-02T12:19:31;96368.16;;;12.83;100.00
13867;BME280;7003;46.982;15.248;2024-03-02T12:22:18;96363.16;;;12.81;100.00
13867;BME280;7003;46.982;15.248;2024-03-02T12:24:47;96361.78;;;13.14;100.00
13867;BME280;7003;46.982;15.248;2024-03-02T12:27:33;96356.22;;;12.99;100.00
13867;BME280;7003;46.982;15.248;2024-03-02T12:30:22;96352.69;;;13.18;100.00
13867;BME280;7003;46.982;15.248;2024-03-02T12:33:12;96351.63;;;13.53;100.00
13867;BME280;7003;46.982;15.248;2024-03-02T12:35:43;96352.25;;;13.72;100.00
13867;BME280;7003;46.982;15.248;2024-03-02T12:38:14;96353.09;;;13.46;100.00
13867;BME280;7003;46.982;15.248;2024-03-02T12:40:43;96350.88;;;13.85;100.00
13867;BME280;7003;46.982;15.248;2024-03-02T12:43:13;96345.47;;;14.15;100.00
13867;BME280;7003;46.982;15.248;2024-03-02T12:45:43;96345.47;;;14.15;100.00
13867;BME280;7003;46.982;15.248;2024-03-02T12:48:15;96349.94;;;13.71;100.00
13867;BME280;7003;46.982;15.248;2024-03-02T12:50:44;96352.78;;;13.85;100.00
13867;BME280;7003;46.982;15.248;2024-03-02T12:53:15;96350.84;;;13.82;100.00
13867;BME280;7003;46.982;15.248;2024-03-02T12:55:46;96349.00;;;13.90;100.00
13867;BME280;7003;46.982;15.248;2024-03-02T12:58:19;96337.63;;;13.96;100.00
13867;BME280;7003;46.982;15.248;2024-03-02T13:00:49;96338.44;;;14.00;100.00
13867;BME280;7003;46.982;15.248;2024-03-02T13:03:18;96341.31;;;13.84;100.00
13867;BME280;7003;46.982;15.248;2024-03-02T13:05:49;96337.81;;;13.80;100.00
13867;BME280;7003;46.982;15.248;2024-03-02T13:08:20;96339.31;;;13.44;100.00
13867;BME280;7003;46.982;15.248;2024-03-02T13:10:51;96339.22;;;13.71;100.00
13867;BME280;7003;46.982;15.248;2024-03-02T13:13:20;96336.91;;;13.66;100.00
13867;BME280;7003;46.982;15.248;2024-03-02T13:15:55;96337.31;;;13.68;100.00
13867;BME280;7003;46.982;15.248;2024-03-02T13:18:30;96338.09;;;13.68;100.00
13867;BME280;7003;46.982;15.248;2024-03-02T13:20:59;96331.72;;;13.80;100.00
13867;BME280;7003;46.982;15.248;2024-03-02T13:23:28;96330.38;;;13.63;100.00